Buoy 56564

sailwx.info

Track history (hours):
 
Tides and Currents Weather Stations Pressure Air Temp Water Temp Dewpoint Dewpoint Depression Visibility Wind Speed Wind Dir Waves Ship Positions

Drifting buoy 56564

Last reported at 2017-Sep-24 02:30 UTC. Time now 2017-Sep-24 03:21 UTC.
Position S 25°27' E 047°05'.

Barometer 1017.0 mb
Water temperature 22.8 ° C

Date/timePositionNaut miles runAvg speedWind from/ knotsBaromVisibWave heightAir tempDewpointWater temp
2017-Sep-24 02:30S 25°27' E 047°05'3 1.1 1017.0 22.8
2017-Sep-23 23:30S 25°25' E 047°08'1 0.3 1016.7 22.7
2017-Sep-23 21:30S 25°25' E 047°09'5 1.6 1017.5 22.8
2017-Sep-23 18:30S 25°20' E 047°10'7 6.6 1017.9 22.9
2017-Sep-23 17:30S 25°15' E 047°14'1 0.4 1017.6 23.0
2017-Sep-23 15:30S 25°16' E 047°15'4 1.9 1016.8 23.2
2017-Sep-23 13:30S 25°12' E 047°16'4 3.6 1016.1 23.1
2017-Sep-23 12:30S 25°10' E 047°19'3 1.7 1016.0 23.2
2017-Sep-23 10:30S 25°07' E 047°21'11 2.6 1016.9 23.6
2017-Sep-23 06:30S 24°56' E 047°24'3 2.6 1019.7 23.3
2017-Sep-23 05:30S 24°54' E 047°25'4 3.7 1019.8 23.3
2017-Sep-23 04:30S 24°51' E 047°28'4 1.8 1019.6 23.4
2017-Sep-23 02:30S 24°47' E 047°28'2 2.4 1019.0 23.6
2017-Sep-23 01:30S 24°46' E 047°30'4 3.6 1018.9 23.8
2017-Sep-23 00:30S 24°42' E 047°31'0 0.0 1018.7 24.0
2017-Sep-22 23:30S 24°42' E 047°31'15 7.7 1019.2 24.3
2017-Sep-22 21:30S 24°27' E 047°34'9 2.3 1020.4 24.5
2017-Sep-22 17:30S 24°19' E 047°38'5 4.5 1021.3 24.5
2017-Sep-22 16:30S 24°14' E 047°40'0 0.0 1021.1 24.6
2017-Sep-22 15:30S 24°14' E 047°40'5 4.5 1020.8 24.6
2017-Sep-22 14:30S 24°11' E 047°43'5 4.8 1020.5 24.6
2017-Sep-22 13:30S 24°06' E 047°43'1 0.6 1020.2 24.6
2017-Sep-22 12:30S 24°05' E 047°43'5 2.7 1019.8 24.6
2017-Sep-22 10:30S 24°01' E 047°47'14 3.6 1020.6 24.6
2017-Sep-22 06:30S 23°49' E 047°55'0 0.0 1021.8 24.6
2017-Sep-22 05:30S 23°49' E 047°55'6 5.8 1021.5 24.5
2017-Sep-22 04:30S 23°43' E 047°57'0 0.0 1021.3 24.5
2017-Sep-22 03:30S 23°43' E 047°57'3 3.4 1021.2 24.5
2017-Sep-22 02:30S 23°40' E 047°59'1 0.8 1020.4 24.5
2017-Sep-22 01:30S 23°40' E 047°59'3 3.3 1019.8 24.5
2017-Sep-22 00:30S 23°37' E 048°02'3 3.3 1019.0 24.5
2017-Sep-21 23:30S 23°35' E 048°04'1 0.6 1019.2 24.4
2017-Sep-21 22:30S 23°34' E 048°04'9 2.2 1018.9 24.5
2017-Sep-21 18:30S 23°26' E 048°09'2 1.9 1020.6 24.5
2017-Sep-21 17:30S 23°25' E 048°10'5 5.3 1020.4 24.5
2017-Sep-21 16:30S 23°20' E 048°12'0 0.0 1019.9 24.5
2017-Sep-21 15:30S 23°20' E 048°12'1 0.8 1019.4 24.5
2017-Sep-21 14:30S 23°19' E 048°13'2 1.9 1019.0 24.5
2017-Sep-21 13:30S 23°17' E 048°13'1 1.3 1018.6 24.6
2017-Sep-21 12:30S 23°16' E 048°14'3 3.2 1018.0 24.5
2017-Sep-21 11:30S 23°13' E 048°15'0 0.0 1018.7 24.5
2017-Sep-21 10:30S 23°13' E 048°15'11 2.3 1018.9 24.5
2017-Sep-21 05:30S 23°02' E 048°19'2 1.9 1021.0 24.4
2017-Sep-21 04:30S 23°01' E 048°19'4 3.7 1021.0 24.3
2017-Sep-21 03:30S 22°58' E 048°22'1 0.6 1020.4 24.3
2017-Sep-21 02:30S 22°57' E 048°22'1 0.8 1020.3 24.3
2017-Sep-21 01:30S 22°56' E 048°21'3 2.9 1020.4 24.3
2017-Sep-21 00:30S 22°54' E 048°23'3 1.3 1020.5 24.3
2017-Sep-20 22:30S 22°52' E 048°24'8 1.9 1020.7 24.2
2017-Sep-20 18:30S 22°45' E 048°28'2 1.6 1021.9 24.3
2017-Sep-20 17:30S 22°44' E 048°29'1 1.3 1022.0 24.3
2017-Sep-20 16:30S 22°43' E 048°30'1 1.2 1021.4 24.3
2017-Sep-20 15:30S 22°41' E 048°30'2 1.6 1020.4 24.4
2017-Sep-20 14:30S 22°40' E 048°31'3 2.6 1019.9 24.4
2017-Sep-20 13:30S 22°38' E 048°32'3 1.7 1020.1 24.4
2017-Sep-20 11:30S 22°35' E 048°34'8 1.7 1020.4 24.4
2017-Sep-20 06:30S 22°28' E 048°39'1 0.6 1023.9 24.2
2017-Sep-20 05:30S 22°27' E 048°39'1 0.8 1024.0 24.2
2017-Sep-20 04:30S 22°26' E 048°40'2 1.9 1024.0 24.2
2017-Sep-20 03:30S 22°25' E 048°40'1 0.8 1023.5 24.2
2017-Sep-20 02:30S 22°24' E 048°41'1 0.3 1023.0 24.2
2017-Sep-20 00:30S 22°23' E 048°41'2 0.9 1023.1 24.2
2017-Sep-19 22:30S 22°22' E 048°41'3 0.7 1023.3 24.2
2017-Sep-19 18:30S 22°20' E 048°44'1 0.8 1024.1 24.3
2017-Sep-19 17:30S 22°19' E 048°44'1 0.8 1023.8 24.3
2017-Sep-19 16:30S 22°19' E 048°45'1 1.1 1023.3 24.3
2017-Sep-19 15:30S 22°19' E 048°46'1 0.6 1023.1 24.3
2017-Sep-19 14:30S 22°18' E 048°46'1 0.6 1022.4 24.3
2017-Sep-19 13:30S 22°17' E 048°46'2 0.8 1022.1 24.4
2017-Sep-19 11:30S 22°16' E 048°47'4 0.9 1022.1 24.4
2017-Sep-19 06:30S 22°13' E 048°51'1 0.6 1025.1 24.1
2017-Sep-19 05:30S 22°13' E 048°51'1 1.3 1025.2 24.1
2017-Sep-19 04:30S 22°12' E 048°52'1 1.1 1025.1 24.1
2017-Sep-19 03:30S 22°12' E 048°53'1 1.3 1024.6 24.1
2017-Sep-19 02:30S 22°11' E 048°55'1 0.6 1024.1 24.1
2017-Sep-19 01:30S 22°11' E 048°55'1 1.1 1023.6 24.1
2017-Sep-19 00:30S 22°11' E 048°56'2 1.2 1023.4 24.1
2017-Sep-18 22:30S 22°11' E 048°59'5 1.7 1023.6 24.1
2017-Sep-18 19:30S 22°10' E 049°04'0 0.0 1024.7 24.0
2017-Sep-18 18:30S 22°10' E 049°04'2 1.8 1024.7 24.0
2017-Sep-18 17:30S 22°10' E 049°06'1 0.8 1024.6 24.0
2017-Sep-18 16:30S 22°09' E 049°07'3 1.5 1024.0 24.0
2017-Sep-18 14:30S 22°08' E 049°10'2 2.1 1022.4 24.1
2017-Sep-18 13:30S 22°07' E 049°11'3 2.5 1022.0 24.1
2017-Sep-18 12:30S 22°05' E 049°14'0 0.0 1021.7 24.2
2017-Sep-18 11:30S 22°05' E 049°14'11 2.2 1021.6 24.2
2017-Sep-18 06:30S 22°00' E 049°24'1 1.3 1023.4 24.0
2017-Sep-18 05:30S 21°59' E 049°25'3 1.3 1023.0 24.0
2017-Sep-18 03:30S 21°58' E 049°28'3 2.9 1021.8 24.0
2017-Sep-18 02:30S 21°56' E 049°30'2 1.6 1021.1 24.0
2017-Sep-18 01:30S 21°55' E 049°31'0 0.0 1020.7 24.1
2017-Sep-18 00:30S 21°55' E 049°31'3 2.6 1020.5 24.2
2017-Sep-17 23:30S 21°53' E 049°32'0 0.0 1020.7 24.2
2017-Sep-17 22:30S 21°53' E 049°32'5 5.1 1020.9 24.3
2017-Sep-17 21:30S 21°48' E 049°34'3 0.7 1021.4 24.3
2017-Sep-17 17:30S 21°46' E 049°36'2 1.6 1021.3 24.4
2017-Sep-17 16:30S 21°44' E 049°37'0 0.0 1020.6 24.4
2017-Sep-17 15:30S 21°44' E 049°37'2 1.6 1019.7 24.5
2017-Sep-17 14:30S 21°43' E 049°38'0 0.0 1018.7 24.5
2017-Sep-17 13:30S 21°43' E 049°38'2 1.1 1017.8 24.6
2017-Sep-17 11:30S 21°41' E 049°40'5 2.5 1016.9 24.8
2017-Sep-17 09:30S 21°37' E 049°41'1 0.2 1017.5 24.7
2017-Sep-17 06:30S 21°37' E 049°42'2 1.6 1018.2 24.4
2017-Sep-17 05:30S 21°35' E 049°43'0 0.0 1018.3 24.4
2017-Sep-17 04:30S 21°35' E 049°43'1 1.3 1018.1 24.4
2017-Sep-17 03:30S 21°35' E 049°44'1 0.8 1017.7 24.4
2017-Sep-17 02:30S 21°34' E 049°45'0 0.0 1016.9 24.4
2017-Sep-17 01:30S 21°34' E 049°45'0 0.0 1016.6 24.4
2017-Sep-17 00:30S 21°34' E 049°45'0 0.0 1016.5 24.4
2017-Sep-16 23:30S 21°34' E 049°45'3 1.6 1016.6 24.4
2017-Sep-16 21:30S 21°32' E 049°47'1 0.3 1017.4 24.4
2017-Sep-16 17:30S 21°32' E 049°49'1 1.1 1018.5 24.4
2017-Sep-16 16:30S 21°32' E 049°50'1 0.6 1017.7 24.4
2017-Sep-16 15:30S 21°32' E 049°50'1 0.6 1016.9 24.4
2017-Sep-16 13:30S 21°32' E 049°52'1 1.3 1015.9 24.5
2017-Sep-16 12:30S 21°32' E 049°53'1 0.7 1015.6 24.5
2017-Sep-16 10:30S 21°33' E 049°53'2 0.4 1015.8 24.5
2017-Sep-16 05:30S 21°34' E 049°55'1 0.6 1017.4 24.4
2017-Sep-16 04:30S 21°34' E 049°56'2 1.2 1017.0 24.4
2017-Sep-16 02:30S 21°35' E 049°58'0 0.0 1015.5 24.4
2017-Sep-16 01:30S 21°35' E 049°58'1 0.6 1015.0 24.4
2017-Sep-15 23:30S 21°37' E 049°58'1 0.3 1014.3 24.4
2017-Sep-15 21:30S 21°36' E 049°58'2 0.5 1015.4 24.4
2017-Sep-15 18:30S 21°37' E 049°56'0 0.0 1015.9 24.5
2017-Sep-15 17:30S 21°37' E 049°56'1 1.1 1015.7 24.5
2017-Sep-15 16:30S 21°37' E 049°55'0 0.0 1015.1 24.6
2017-Sep-15 15:30S 21°37' E 049°55'1 1.3 1014.3 24.7
2017-Sep-15 14:30S 21°37' E 049°54'1 0.6 1013.8 24.8
2017-Sep-15 13:30S 21°37' E 049°53'1 0.6 1013.3 24.8
2017-Sep-15 12:30S 21°37' E 049°53'2 1.8 1012.8 24.8
2017-Sep-15 11:30S 21°36' E 049°51'0 0.0 1012.7 24.8
2017-Sep-15 10:30S 21°36' E 049°51'5 1.2 1013.1 24.7
2017-Sep-15 06:30S 21°32' E 049°49'1 0.8 1014.9 24.4
2017-Sep-15 05:30S 21°31' E 049°48'1 0.8 1015.0 24.4
2017-Sep-15 04:30S 21°31' E 049°49'1 0.8 1014.7 24.4
2017-Sep-15 03:30S 21°30' E 049°49'1 0.6 1014.2 24.4
2017-Sep-15 02:30S 21°29' E 049°49'1 0.6 1014.0 24.4
2017-Sep-15 01:30S 21°29' E 049°50'2 0.8 1013.0 24.4
2017-Sep-14 23:30S 21°28' E 049°51'0 0.0 1013.6 24.4
2017-Sep-14 21:30S 21°28' E 049°51'4 1.4 1014.2 24.4
2017-Sep-14 18:30S 21°24' E 049°50'1 1.3 1015.8 24.4
2017-Sep-14 17:30S 21°23' E 049°51'2 1.1 1015.8 24.4
2017-Sep-14 15:30S 21°21' E 049°52'2 2.1 1016.1 24.4
2017-Sep-14 14:30S 21°19' E 049°53'1 0.8 1016.0 24.5
2017-Sep-14 13:30S 21°20' E 049°53'1 0.8 1016.0 24.5
2017-Sep-14 12:30S 21°19' E 049°53'1 0.4 1016.1 24.6
2017-Sep-14 10:30S 21°19' E 049°54'4 1.0 1017.2 24.6
2017-Sep-14 06:30S 21°16' E 049°57'0 0.0 1020.3 24.4
2017-Sep-14 05:30S 21°16' E 049°57'1 0.6 1020.3 24.4
2017-Sep-14 04:30S 21°16' E 049°58'1 0.8 1020.2 24.4
2017-Sep-14 03:30S 21°15' E 049°58'1 1.3 1019.9 24.4
2017-Sep-14 02:30S 21°14' E 049°59'   1019.3 24.4
Track history (hours):
 
Tides and Currents Weather Stations Pressure Air Temp Water Temp Dewpoint Dewpoint Depression Visibility Wind Speed Wind Dir Waves Ship Positions

Drifting buoy 56564

Last reported at 2017-Sep-24 02:30 UTC. Time now 2017-Sep-24 03:21 UTC.
Position S 25°27' E 047°05'.

Barometer 1017.0 mb
Water temperature 22.8 ° C

Date/timePositionNaut miles runAvg speedWind from/ knotsBaromVisibWave heightAir tempDewpointWater temp
2017-Sep-24 02:30S 25°27' E 047°05'3 1.1 1017.0 22.8
2017-Sep-23 23:30S 25°25' E 047°08'1 0.3 1016.7 22.7
2017-Sep-23 21:30S 25°25' E 047°09'5 1.6 1017.5 22.8
2017-Sep-23 18:30S 25°20' E 047°10'7 6.6 1017.9 22.9
2017-Sep-23 17:30S 25°15' E 047°14'1 0.4 1017.6 23.0
2017-Sep-23 15:30S 25°16' E 047°15'4 1.9 1016.8 23.2
2017-Sep-23 13:30S 25°12' E 047°16'4 3.6 1016.1 23.1
2017-Sep-23 12:30S 25°10' E 047°19'3 1.7 1016.0 23.2
2017-Sep-23 10:30S 25°07' E 047°21'11 2.6 1016.9 23.6
2017-Sep-23 06:30S 24°56' E 047°24'3 2.6 1019.7 23.3
2017-Sep-23 05:30S 24°54' E 047°25'4 3.7 1019.8 23.3
2017-Sep-23 04:30S 24°51' E 047°28'4 1.8 1019.6 23.4
2017-Sep-23 02:30S 24°47' E 047°28'2 2.4 1019.0 23.6
2017-Sep-23 01:30S 24°46' E 047°30'4 3.6 1018.9 23.8
2017-Sep-23 00:30S 24°42' E 047°31'0 0.0 1018.7 24.0
2017-Sep-22 23:30S 24°42' E 047°31'15 7.7 1019.2 24.3
2017-Sep-22 21:30S 24°27' E 047°34'9 2.3 1020.4 24.5
2017-Sep-22 17:30S 24°19' E 047°38'5 4.5 1021.3 24.5
2017-Sep-22 16:30S 24°14' E 047°40'0 0.0 1021.1 24.6
2017-Sep-22 15:30S 24°14' E 047°40'5 4.5 1020.8 24.6
2017-Sep-22 14:30S 24°11' E 047°43'5 4.8 1020.5 24.6
2017-Sep-22 13:30S 24°06' E 047°43'1 0.6 1020.2 24.6
2017-Sep-22 12:30S 24°05' E 047°43'5 2.7 1019.8 24.6
2017-Sep-22 10:30S 24°01' E 047°47'14 3.6 1020.6 24.6
2017-Sep-22 06:30S 23°49' E 047°55'0 0.0 1021.8 24.6
2017-Sep-22 05:30S 23°49' E 047°55'6 5.8 1021.5 24.5
2017-Sep-22 04:30S 23°43' E 047°57'0 0.0 1021.3 24.5
2017-Sep-22 03:30S 23°43' E 047°57'3 3.4 1021.2 24.5
2017-Sep-22 02:30S 23°40' E 047°59'1 0.8 1020.4 24.5
2017-Sep-22 01:30S 23°40' E 047°59'3 3.3 1019.8 24.5
2017-Sep-22 00:30S 23°37' E 048°02'3 3.3 1019.0 24.5
2017-Sep-21 23:30S 23°35' E 048°04'1 0.6 1019.2 24.4
2017-Sep-21 22:30S 23°34' E 048°04'9 2.2 1018.9 24.5
2017-Sep-21 18:30S 23°26' E 048°09'2 1.9 1020.6 24.5
2017-Sep-21 17:30S 23°25' E 048°10'5 5.3 1020.4 24.5
2017-Sep-21 16:30S 23°20' E 048°12'0 0.0 1019.9 24.5
2017-Sep-21 15:30S 23°20' E 048°12'1 0.8 1019.4 24.5
2017-Sep-21 14:30S 23°19' E 048°13'2 1.9 1019.0 24.5
2017-Sep-21 13:30S 23°17' E 048°13'1 1.3 1018.6 24.6
2017-Sep-21 12:30S 23°16' E 048°14'3 3.2 1018.0 24.5
2017-Sep-21 11:30S 23°13' E 048°15'0 0.0 1018.7 24.5
2017-Sep-21 10:30S 23°13' E 048°15'11 2.3 1018.9 24.5
2017-Sep-21 05:30S 23°02' E 048°19'2 1.9 1021.0 24.4
2017-Sep-21 04:30S 23°01' E 048°19'4 3.7 1021.0 24.3
2017-Sep-21 03:30S 22°58' E 048°22'1 0.6 1020.4 24.3
2017-Sep-21 02:30S 22°57' E 048°22'1 0.8 1020.3 24.3
2017-Sep-21 01:30S 22°56' E 048°21'3 2.9 1020.4 24.3
2017-Sep-21 00:30S 22°54' E 048°23'3 1.3 1020.5 24.3
2017-Sep-20 22:30S 22°52' E 048°24'8 1.9 1020.7 24.2
2017-Sep-20 18:30S 22°45' E 048°28'2 1.6 1021.9 24.3
2017-Sep-20 17:30S 22°44' E 048°29'1 1.3 1022.0 24.3
2017-Sep-20 16:30S 22°43' E 048°30'1 1.2 1021.4 24.3
2017-Sep-20 15:30S 22°41' E 048°30'2 1.6 1020.4 24.4
2017-Sep-20 14:30S 22°40' E 048°31'3 2.6 1019.9 24.4
2017-Sep-20 13:30S 22°38' E 048°32'3 1.7 1020.1 24.4
2017-Sep-20 11:30S 22°35' E 048°34'8 1.7 1020.4 24.4
2017-Sep-20 06:30S 22°28' E 048°39'1 0.6 1023.9 24.2
2017-Sep-20 05:30S 22°27' E 048°39'1 0.8 1024.0 24.2
2017-Sep-20 04:30S 22°26' E 048°40'2 1.9 1024.0 24.2
2017-Sep-20 03:30S 22°25' E 048°40'1 0.8 1023.5 24.2
2017-Sep-20 02:30S 22°24' E 048°41'1 0.3 1023.0 24.2
2017-Sep-20 00:30S 22°23' E 048°41'2 0.9 1023.1 24.2
2017-Sep-19 22:30S 22°22' E 048°41'3 0.7 1023.3 24.2
2017-Sep-19 18:30S 22°20' E 048°44'1 0.8 1024.1 24.3
2017-Sep-19 17:30S 22°19' E 048°44'1 0.8 1023.8 24.3
2017-Sep-19 16:30S 22°19' E 048°45'1 1.1 1023.3 24.3
2017-Sep-19 15:30S 22°19' E 048°46'1 0.6 1023.1 24.3
2017-Sep-19 14:30S 22°18' E 048°46'1 0.6 1022.4 24.3
2017-Sep-19 13:30S 22°17' E 048°46'2 0.8 1022.1 24.4
2017-Sep-19 11:30S 22°16' E 048°47'4 0.9 1022.1 24.4
2017-Sep-19 06:30S 22°13' E 048°51'1 0.6 1025.1 24.1
2017-Sep-19 05:30S 22°13' E 048°51'1 1.3 1025.2 24.1
2017-Sep-19 04:30S 22°12' E 048°52'1 1.1 1025.1 24.1
2017-Sep-19 03:30S 22°12' E 048°53'1 1.3 1024.6 24.1
2017-Sep-19 02:30S 22°11' E 048°55'1 0.6 1024.1 24.1
2017-Sep-19 01:30S 22°11' E 048°55'1 1.1 1023.6 24.1
2017-Sep-19 00:30S 22°11' E 048°56'2 1.2 1023.4 24.1
2017-Sep-18 22:30S 22°11' E 048°59'5 1.7 1023.6 24.1
2017-Sep-18 19:30S 22°10' E 049°04'0 0.0 1024.7 24.0
2017-Sep-18 18:30S 22°10' E 049°04'2 1.8 1024.7 24.0
2017-Sep-18 17:30S 22°10' E 049°06'1 0.8 1024.6 24.0
2017-Sep-18 16:30S 22°09' E 049°07'3 1.5 1024.0 24.0
2017-Sep-18 14:30S 22°08' E 049°10'2 2.1 1022.4 24.1
2017-Sep-18 13:30S 22°07' E 049°11'3 2.5 1022.0 24.1
2017-Sep-18 12:30S 22°05' E 049°14'0 0.0 1021.7 24.2
2017-Sep-18 11:30S 22°05' E 049°14'11 2.2 1021.6 24.2
2017-Sep-18 06:30S 22°00' E 049°24'1 1.3 1023.4 24.0
2017-Sep-18 05:30S 21°59' E 049°25'3 1.3 1023.0 24.0
2017-Sep-18 03:30S 21°58' E 049°28'3 2.9 1021.8 24.0
2017-Sep-18 02:30S 21°56' E 049°30'2 1.6 1021.1 24.0
2017-Sep-18 01:30S 21°55' E 049°31'0 0.0 1020.7 24.1
2017-Sep-18 00:30S 21°55' E 049°31'3 2.6 1020.5 24.2
2017-Sep-17 23:30S 21°53' E 049°32'0 0.0 1020.7 24.2
2017-Sep-17 22:30S 21°53' E 049°32'5 5.1 1020.9 24.3
2017-Sep-17 21:30S 21°48' E 049°34'3 0.7 1021.4 24.3
2017-Sep-17 17:30S 21°46' E 049°36'2 1.6 1021.3 24.4
2017-Sep-17 16:30S 21°44' E 049°37'0 0.0 1020.6 24.4
2017-Sep-17 15:30S 21°44' E 049°37'2 1.6 1019.7 24.5
2017-Sep-17 14:30S 21°43' E 049°38'0 0.0 1018.7 24.5
2017-Sep-17 13:30S 21°43' E 049°38'2 1.1 1017.8 24.6
2017-Sep-17 11:30S 21°41' E 049°40'5 2.5 1016.9 24.8
2017-Sep-17 09:30S 21°37' E 049°41'1 0.2 1017.5 24.7
2017-Sep-17 06:30S 21°37' E 049°42'2 1.6 1018.2 24.4
2017-Sep-17 05:30S 21°35' E 049°43'0 0.0 1018.3 24.4
2017-Sep-17 04:30S 21°35' E 049°43'1 1.3 1018.1 24.4
2017-Sep-17 03:30S 21°35' E 049°44'1 0.8 1017.7 24.4
2017-Sep-17 02:30S 21°34' E 049°45'0 0.0 1016.9 24.4
2017-Sep-17 01:30S 21°34' E 049°45'0 0.0 1016.6 24.4
2017-Sep-17 00:30S 21°34' E 049°45'0 0.0 1016.5 24.4
2017-Sep-16 23:30S 21°34' E 049°45'3 1.6 1016.6 24.4
2017-Sep-16 21:30S 21°32' E 049°47'1 0.3 1017.4 24.4
2017-Sep-16 17:30S 21°32' E 049°49'1 1.1 1018.5 24.4
2017-Sep-16 16:30S 21°32' E 049°50'1 0.6 1017.7 24.4
2017-Sep-16 15:30S 21°32' E 049°50'1 0.6 1016.9 24.4
2017-Sep-16 13:30S 21°32' E 049°52'1 1.3 1015.9 24.5
2017-Sep-16 12:30S 21°32' E 049°53'1 0.7 1015.6 24.5
2017-Sep-16 10:30S 21°33' E 049°53'2 0.4 1015.8 24.5
2017-Sep-16 05:30S 21°34' E 049°55'1 0.6 1017.4 24.4
2017-Sep-16 04:30S 21°34' E 049°56'2 1.2 1017.0 24.4
2017-Sep-16 02:30S 21°35' E 049°58'0 0.0 1015.5 24.4
2017-Sep-16 01:30S 21°35' E 049°58'1 0.6 1015.0 24.4
2017-Sep-15 23:30S 21°37' E 049°58'1 0.3 1014.3 24.4
2017-Sep-15 21:30S 21°36' E 049°58'2 0.5 1015.4 24.4
2017-Sep-15 18:30S 21°37' E 049°56'0 0.0 1015.9 24.5
2017-Sep-15 17:30S 21°37' E 049°56'1 1.1 1015.7 24.5
2017-Sep-15 16:30S 21°37' E 049°55'0 0.0 1015.1 24.6
2017-Sep-15 15:30S 21°37' E 049°55'1 1.3 1014.3 24.7
2017-Sep-15 14:30S 21°37' E 049°54'1 0.6 1013.8 24.8
2017-Sep-15 13:30S 21°37' E 049°53'1 0.6 1013.3 24.8
2017-Sep-15 12:30S 21°37' E 049°53'2 1.8 1012.8 24.8
2017-Sep-15 11:30S 21°36' E 049°51'0 0.0 1012.7 24.8
2017-Sep-15 10:30S 21°36' E 049°51'5 1.2 1013.1 24.7
2017-Sep-15 06:30S 21°32' E 049°49'1 0.8 1014.9 24.4
2017-Sep-15 05:30S 21°31' E 049°48'1 0.8 1015.0 24.4
2017-Sep-15 04:30S 21°31' E 049°49'1 0.8 1014.7 24.4
2017-Sep-15 03:30S 21°30' E 049°49'1 0.6 1014.2 24.4
2017-Sep-15 02:30S 21°29' E 049°49'1 0.6 1014.0 24.4
2017-Sep-15 01:30S 21°29' E 049°50'2 0.8 1013.0 24.4
2017-Sep-14 23:30S 21°28' E 049°51'0 0.0 1013.6 24.4
2017-Sep-14 21:30S 21°28' E 049°51'4 1.4 1014.2 24.4
2017-Sep-14 18:30S 21°24' E 049°50'1 1.3 1015.8 24.4
2017-Sep-14 17:30S 21°23' E 049°51'2 1.1 1015.8 24.4
2017-Sep-14 15:30S 21°21' E 049°52'2 2.1 1016.1 24.4
2017-Sep-14 14:30S 21°19' E 049°53'1 0.8 1016.0 24.5
2017-Sep-14 13:30S 21°20' E 049°53'1 0.8 1016.0 24.5
2017-Sep-14 12:30S 21°19' E 049°53'1 0.4 1016.1 24.6
2017-Sep-14 10:30S 21°19' E 049°54'4 1.0 1017.2 24.6
2017-Sep-14 06:30S 21°16' E 049°57'0 0.0 1020.3 24.4
2017-Sep-14 05:30S 21°16' E 049°57'1 0.6 1020.3 24.4
2017-Sep-14 04:30S 21°16' E 049°58'1 0.8 1020.2 24.4
2017-Sep-14 03:30S 21°15' E 049°58'1 1.3 1019.9 24.4
2017-Sep-14 02:30S 21°14' E 049°59'   1019.3 24.4

Dump ship's entire track history